createdAt,value
2019-03-05T00:02:18.574Z,3.50
2019-03-05T00:04:48.083Z,3.30
2019-03-05T00:07:17.590Z,4.13
2019-03-05T00:09:47.146Z,3.90
2019-03-05T00:12:16.644Z,3.37
2019-03-05T00:14:46.169Z,3.70
2019-03-05T00:17:15.709Z,3.80
2019-03-05T00:19:45.298Z,5.53
2019-03-05T00:22:14.826Z,3.57
2019-03-05T00:25:02.582Z,4.30
2019-03-05T00:27:34.508Z,3.50
2019-03-05T00:30:31.115Z,3.80
2019-03-05T00:33:29.538Z,3.50
2019-03-05T00:36:18.469Z,4.37
2019-03-05T00:39:22.906Z,3.93
2019-03-05T00:42:50.789Z,4.27
2019-03-05T00:45:33.810Z,4.50
2019-03-05T00:48:39.889Z,4.37
2019-03-05T00:51:49.086Z,5.23
2019-03-05T00:55:04.365Z,4.77
2019-03-05T00:57:49.746Z,4.97
2019-03-05T01:00:32.717Z,4.50
2019-03-05T01:03:29.518Z,4.70
2019-03-05T01:06:21.582Z,4.10
2019-03-05T01:08:51.262Z,4.67
2019-03-05T01:11:21.886Z,4.63
2019-03-05T01:13:51.503Z,4.40
2019-03-05T01:16:23.006Z,4.00
2019-03-05T01:18:52.514Z,4.80
2019-03-05T01:21:22.112Z,4.27
2019-03-05T01:23:51.629Z,4.90
2019-03-05T01:26:21.139Z,4.33
2019-03-05T01:28:50.700Z,3.83
2019-03-05T01:31:32.018Z,3.93
2019-03-05T01:34:03.184Z,4.27
2019-03-05T01:36:34.329Z,4.30
2019-03-05T01:39:22.551Z,3.60
2019-03-05T01:41:52.054Z,3.57
2019-03-05T01:44:21.581Z,4.33
2019-03-05T01:46:51.306Z,3.80
2019-03-05T01:49:20.799Z,3.20
2019-03-05T01:51:50.388Z,3.60
2019-03-05T01:54:19.921Z,3.60
2019-03-05T01:56:49.433Z,3.30
2019-03-05T01:59:18.946Z,3.33
2019-03-05T02:01:48.486Z,3.20
2019-03-05T02:04:17.998Z,3.97
2019-03-05T02:06:47.778Z,2.80
2019-03-05T02:09:18.396Z,3.17
2019-03-05T02:11:47.908Z,3.70
2019-03-05T02:14:17.420Z,3.00
2019-03-05T02:16:46.955Z,3.80
2019-03-05T02:19:43.199Z,2.90
2019-03-05T02:22:20.854Z,3.50
2019-03-05T02:25:13.513Z,3.63
2019-03-05T02:28:02.878Z,3.60
2019-03-05T02:30:48.759Z,3.37
2019-03-05T02:34:16.279Z,3.23
2019-03-05T02:37:07.418Z,3.50
2019-03-05T02:39:56.521Z,3.30
2019-03-05T02:42:45.952Z,4.03
2019-03-05T02:45:32.459Z,3.73
2019-03-05T02:48:18.770Z,3.20
2019-03-05T02:50:58.668Z,3.10
2019-03-05T02:53:55.757Z,3.60
2019-03-05T02:56:45.367Z,3.23
2019-03-05T02:59:13.303Z,3.10
2019-03-05T03:01:50.454Z,3.53
2019-03-05T03:04:24.307Z,3.73
2019-03-05T03:06:53.884Z,3.17
2019-03-05T03:09:31.335Z,4.10
2019-03-05T03:12:00.849Z,3.30
2019-03-05T03:14:30.370Z,3.20
2019-03-05T03:16:59.892Z,3.27
2019-03-05T03:19:29.424Z,3.53
2019-03-05T03:21:58.927Z,3.10
2019-03-05T03:24:28.457Z,3.30
2019-03-05T03:26:57.977Z,2.77
2019-03-05T03:29:27.499Z,2.87
2019-03-05T03:31:57.074Z,2.53
2019-03-05T03:34:26.610Z,2.70
2019-03-05T03:36:56.283Z,2.80
2019-03-05T03:39:25.908Z,2.90
2019-03-05T03:41:55.412Z,2.57
2019-03-05T03:44:25.143Z,2.10
2019-03-05T03:46:54.633Z,2.40
2019-03-05T03:49:24.145Z,2.73
2019-03-05T03:51:53.721Z,2.30
2019-03-05T03:54:23.190Z,2.43
2019-03-05T03:56:52.802Z,2.60
2019-03-05T03:59:22.454Z,2.53
2019-03-05T04:01:51.984Z,2.30
2019-03-05T04:04:21.578Z,2.47
2019-03-05T04:06:51.327Z,2.73
2019-03-05T04:09:20.858Z,2.23
2019-03-05T04:11:50.373Z,1.90
2019-03-05T04:14:19.880Z,2.00
2019-03-05T04:16:49.413Z,2.60
2019-03-05T04:19:20.568Z,2.33
2019-03-05T04:21:50.446Z,2.30
2019-03-05T04:24:20.037Z,1.77
2019-03-05T04:26:49.550Z,2.60
2019-03-05T04:29:19.082Z,1.80
2019-03-05T04:31:48.623Z,2.10
2019-03-05T04:34:18.267Z,2.63
2019-03-05T04:36:47.781Z,2.40
2019-03-05T04:39:17.292Z,2.40
2019-03-05T04:41:46.829Z,2.10
2019-03-05T04:44:17.989Z,2.83
2019-03-05T04:46:49.396Z,2.90
2019-03-05T04:49:26.799Z,2.60
2019-03-05T04:52:07.060Z,3.30
2019-03-05T04:54:36.576Z,2.60
2019-03-05T04:57:06.162Z,3.33
2019-03-05T04:59:35.688Z,3.33
2019-03-05T05:02:05.278Z,3.57
2019-03-05T05:04:34.802Z,3.50
2019-03-05T05:07:04.560Z,3.17
2019-03-05T05:09:34.076Z,3.47
2019-03-05T05:12:03.614Z,3.40
2019-03-05T05:14:33.120Z,2.80
2019-03-05T05:17:02.668Z,3.47
2019-03-05T05:19:32.215Z,3.90
2019-03-05T05:22:01.707Z,3.83
2019-03-05T05:24:31.308Z,4.40
2019-03-05T05:27:00.832Z,4.00
2019-03-05T05:29:30.355Z,3.90
2019-03-05T05:31:59.885Z,3.90
2019-03-05T05:34:29.417Z,3.70
2019-03-05T05:36:58.957Z,4.23
2019-03-05T05:40:20.247Z,4.37
2019-03-05T05:42:49.783Z,3.93
2019-03-05T05:45:23.794Z,5.40
2019-03-05T05:47:53.371Z,4.47
2019-03-05T05:50:22.919Z,4.80
2019-03-05T05:52:52.444Z,5.43
2019-03-05T05:55:22.152Z,4.93
2019-03-05T05:57:51.924Z,4.90
2019-03-05T06:00:21.449Z,5.00
2019-03-05T06:02:50.960Z,4.53
2019-03-05T06:05:20.485Z,5.90
2019-03-05T06:07:50.181Z,4.80
2019-03-05T06:10:19.778Z,5.27
2019-03-05T06:12:49.396Z,5.27
2019-03-05T06:15:20.473Z,5.40
2019-03-05T06:17:49.996Z,5.17
2019-03-05T06:20:19.690Z,5.60
2019-03-05T06:22:49.210Z,5.50
2019-03-05T06:25:18.860Z,5.20
2019-03-05T06:27:48.402Z,4.50
2019-03-05T06:30:26.981Z,5.30
2019-03-05T06:32:56.512Z,4.80
2019-03-05T06:35:26.110Z,5.20
2019-03-05T06:37:55.707Z,5.40
2019-03-05T06:40:28.072Z,5.30
2019-03-05T06:42:57.639Z,5.00
2019-03-05T06:45:27.184Z,5.30
2019-03-05T06:47:56.968Z,5.07
2019-03-05T06:50:28.387Z,4.30
2019-03-05T06:52:57.989Z,4.70
2019-03-05T06:55:27.580Z,4.17
2019-03-05T06:57:57.108Z,5.27
2019-03-05T07:00:34.229Z,4.87
2019-03-05T07:03:05.886Z,4.43
2019-03-05T07:06:30.298Z,4.67
2019-03-05T07:09:04.927Z,4.47
2019-03-05T07:12:01.381Z,4.70
2019-03-05T07:14:44.408Z,4.00
2019-03-05T07:17:30.332Z,4.40
2019-03-05T07:20:35.845Z,4.93
2019-03-05T07:23:21.725Z,4.30
2019-03-05T07:25:51.295Z,3.90
2019-03-05T07:28:20.811Z,4.03
2019-03-05T07:30:50.387Z,3.73
2019-03-05T07:33:19.960Z,3.10
2019-03-05T07:35:49.484Z,3.63
2019-03-05T07:38:19.024Z,3.77
2019-03-05T07:40:48.552Z,4.47
2019-03-05T07:43:19.636Z,4.03
2019-03-05T07:45:49.156Z,4.70
2019-03-05T07:48:18.683Z,4.07
2019-03-05T07:50:48.240Z,3.70
2019-03-05T07:53:17.758Z,3.10
2019-03-05T07:55:47.546Z,4.60
2019-03-05T07:58:17.072Z,3.60
2019-03-05T08:00:46.596Z,3.73
2019-03-05T08:03:16.144Z,3.53
2019-03-05T08:05:47.524Z,3.87
2019-03-05T08:09:12.888Z,3.60
2019-03-05T08:11:42.454Z,4.00
2019-03-05T08:14:26.258Z,4.27
2019-03-05T08:16:55.840Z,4.20
2019-03-05T08:19:25.395Z,4.37
2019-03-05T08:21:55.415Z,4.80
2019-03-05T08:24:24.992Z,3.80
2019-03-05T08:26:54.600Z,3.70
2019-03-05T08:29:24.241Z,3.50
2019-03-05T08:31:53.791Z,3.73
2019-03-05T08:34:23.349Z,3.67
2019-03-05T08:36:52.987Z,3.77
2019-03-05T08:39:22.547Z,3.63
2019-03-05T08:41:52.093Z,4.20
2019-03-05T08:44:21.982Z,3.20
2019-03-05T08:46:51.528Z,3.70
2019-03-05T08:49:21.105Z,3.53
2019-03-05T08:51:51.009Z,3.70
2019-03-05T08:54:20.564Z,3.03
2019-03-05T08:56:50.123Z,3.60
2019-03-05T08:59:19.713Z,3.00
2019-03-05T09:01:49.343Z,3.80
2019-03-05T09:04:18.897Z,3.07
2019-03-05T09:06:49.345Z,2.60
2019-03-05T09:09:19.447Z,2.57
2019-03-05T09:11:49.018Z,2.80
2019-03-05T09:14:18.572Z,2.37
2019-03-05T09:16:48.280Z,2.90
2019-03-05T09:19:17.889Z,2.87
2019-03-05T09:21:49.246Z,2.43
2019-03-05T09:24:18.905Z,2.47
2019-03-05T09:26:51.579Z,2.93
2019-03-05T09:29:19.902Z,2.67
2019-03-05T09:31:49.450Z,2.70
2019-03-05T09:34:19.018Z,2.77
2019-03-05T09:36:51.188Z,2.90
2019-03-05T09:39:20.312Z,1.93
2019-03-05T09:41:49.930Z,2.57
2019-03-05T09:44:19.508Z,2.33
2019-03-05T09:46:49.065Z,2.37
2019-03-05T09:49:18.804Z,2.47
2019-03-05T09:51:48.353Z,2.60
2019-03-05T09:54:17.904Z,2.63
2019-03-05T09:56:47.627Z,3.10
2019-03-05T09:59:17.180Z,2.93
2019-03-05T10:01:48.442Z,3.30
2019-03-05T10:04:18.024Z,2.73
2019-03-05T10:06:47.645Z,3.30
2019-03-05T10:09:17.586Z,3.63
2019-03-05T10:11:47.128Z,3.43
2019-03-05T10:14:16.695Z,3.27
2019-03-05T10:16:46.249Z,2.67
2019-03-05T10:19:15.795Z,3.47
2019-03-05T10:21:46.670Z,3.20
2019-03-05T10:24:16.446Z,2.80
2019-03-05T10:26:46.071Z,3.20
2019-03-05T10:29:15.792Z,2.90
2019-03-05T10:31:45.349Z,2.40
2019-03-05T10:34:14.900Z,2.50
2019-03-05T10:36:44.742Z,2.80
2019-03-05T10:39:30.371Z,2.40
2019-03-05T10:41:55.619Z,2.17
2019-03-05T10:44:25.242Z,3.10
2019-03-05T10:46:56.133Z,1.80
2019-03-05T10:49:26.578Z,2.80
2019-03-05T10:51:58.791Z,2.07
2019-03-05T10:54:28.145Z,2.50
2019-03-05T10:56:57.728Z,2.83
2019-03-05T10:59:27.345Z,2.67
2019-03-05T11:01:57.241Z,1.77
2019-03-05T11:04:27.208Z,2.37
2019-03-05T11:06:56.886Z,2.30
2019-03-05T11:09:26.462Z,2.23
2019-03-05T11:11:56.092Z,2.30
2019-03-05T11:14:25.815Z,1.90
2019-03-05T11:16:55.935Z,2.20
2019-03-05T11:19:25.516Z,2.70
2019-03-05T11:21:55.093Z,2.70
2019-03-05T11:24:24.660Z,3.10
2019-03-05T11:26:54.308Z,2.83
2019-03-05T11:29:23.869Z,2.80
2019-03-05T11:31:53.436Z,2.80
2019-03-05T11:34:23.121Z,2.03
2019-03-05T11:36:52.725Z,3.40
2019-03-05T11:39:22.365Z,2.97
2019-03-05T11:41:51.935Z,3.37
2019-03-05T11:44:21.570Z,2.30
2019-03-05T11:46:51.126Z,2.50
2019-03-05T11:49:20.749Z,2.77
2019-03-05T11:51:50.493Z,2.27
2019-03-05T11:54:21.321Z,2.00
2019-03-05T11:56:51.838Z,2.50
2019-03-05T11:59:21.398Z,2.70
2019-03-05T12:01:51.169Z,2.60
2019-03-05T12:04:20.745Z,2.40
2019-03-05T12:06:50.380Z,3.10
2019-03-05T12:09:20.114Z,2.60
2019-03-05T12:11:49.743Z,2.40
2019-03-05T12:14:19.340Z,2.80
2019-03-05T12:16:48.875Z,3.00
2019-03-05T12:19:18.415Z,2.47
2019-03-05T12:21:48.272Z,2.53
2019-03-05T12:24:19.990Z,2.50
2019-03-05T12:26:49.160Z,3.07
2019-03-05T12:29:18.743Z,2.40
2019-03-05T12:31:48.296Z,2.57
2019-03-05T12:34:17.856Z,2.43
2019-03-05T12:36:47.441Z,2.53
2019-03-05T12:39:20.082Z,2.47
2019-03-05T12:41:49.616Z,3.37
2019-03-05T12:44:19.191Z,3.63
2019-03-05T12:46:48.783Z,3.50
2019-03-05T12:49:18.473Z,2.60
2019-03-05T12:51:48.159Z,3.00
2019-03-05T12:54:17.715Z,3.20
2019-03-05T12:56:48.601Z,3.50
2019-03-05T12:59:18.164Z,3.40
2019-03-05T13:01:47.739Z,3.20
2019-03-05T13:04:17.348Z,3.13
2019-03-05T13:06:46.981Z,3.13
2019-03-05T13:09:19.511Z,2.37
2019-03-05T13:11:49.890Z,2.83
2019-03-05T13:14:20.557Z,3.10
2019-03-05T13:16:50.227Z,2.70
2019-03-05T13:19:19.856Z,2.80
2019-03-05T13:21:50.228Z,4.60
2019-03-05T13:24:19.863Z,3.93
2019-03-05T13:26:49.526Z,3.40
2019-03-05T13:29:20.512Z,4.00
2019-03-05T13:31:50.268Z,2.30
2019-03-05T13:34:19.831Z,3.00
2019-03-05T13:36:50.603Z,3.37
2019-03-05T13:39:22.204Z,3.53
2019-03-05T13:41:53.906Z,3.13
2019-03-05T13:44:33.918Z,4.10
2019-03-05T13:47:05.590Z,2.60
2019-03-05T13:50:11.359Z,3.30
2019-03-05T13:52:48.144Z,2.90
2019-03-05T13:55:31.164Z,2.97
2019-03-05T13:58:40.186Z,3.20
2019-03-05T14:01:10.983Z,2.97
2019-03-05T14:03:53.394Z,3.35
2019-03-05T14:06:56.486Z,4.10
2019-03-05T14:09:24.471Z,3.83
2019-03-05T14:11:54.454Z,3.00
2019-03-05T14:14:26.652Z,3.10
2019-03-05T14:16:58.244Z,2.77
2019-03-05T14:19:29.442Z,2.83
2019-03-05T14:21:59.142Z,3.33
2019-03-05T14:24:28.774Z,3.77
2019-03-05T14:26:58.791Z,3.87
2019-03-05T14:29:29.436Z,3.70
2019-03-05T14:32:00.115Z,3.83
2019-03-05T14:34:31.076Z,3.90
2019-03-05T14:37:00.860Z,2.77
2019-03-05T14:39:33.847Z,3.07
2019-03-05T14:42:05.932Z,3.27
2019-03-05T14:44:39.936Z,2.47
2019-03-05T14:47:07.611Z,3.10
2019-03-05T14:49:37.169Z,2.30
2019-03-05T14:52:07.503Z,2.13
2019-03-05T14:54:37.118Z,2.33
2019-03-05T14:57:06.812Z,2.40
2019-03-05T14:59:36.537Z,2.00
2019-03-05T15:02:06.271Z,1.97
2019-03-05T15:04:35.886Z,2.03
2019-03-05T15:07:05.650Z,2.10
2019-03-05T15:09:35.218Z,5.30
2019-03-05T15:12:04.881Z,4.00
2019-03-05T15:14:34.654Z,2.43
2019-03-05T15:17:04.930Z,2.23
2019-03-05T15:19:34.816Z,2.20
2019-03-05T15:22:04.608Z,2.10
2019-03-05T15:24:34.212Z,2.60
2019-03-05T15:27:03.811Z,3.20
2019-03-05T15:29:33.400Z,2.93
2019-03-05T15:32:03.062Z,2.40
2019-03-05T15:34:32.680Z,2.63
2019-03-05T15:37:02.275Z,1.87
2019-03-05T15:39:31.926Z,1.23
2019-03-05T15:42:01.527Z,1.67
2019-03-05T15:44:31.139Z,1.50
2019-03-05T15:47:00.710Z,1.60
2019-03-05T15:49:30.359Z,2.23
2019-03-05T15:52:00.075Z,2.30
2019-03-05T15:54:29.601Z,2.63
2019-03-05T15:56:59.167Z,2.20
2019-03-05T15:59:28.958Z,2.00
2019-03-05T16:01:58.696Z,3.23
2019-03-05T16:04:28.238Z,2.30
2019-03-05T16:06:57.878Z,2.30
2019-03-05T16:09:27.488Z,2.33
2019-03-05T16:11:57.028Z,2.20
2019-03-05T16:14:29.655Z,2.17
2019-03-05T16:16:57.963Z,2.43
2019-03-05T16:19:27.484Z,2.90
2019-03-05T16:21:57.471Z,2.70
2019-03-05T16:24:27.009Z,2.40
2019-03-05T16:26:56.975Z,2.60
2019-03-05T16:29:27.450Z,1.73
2019-03-05T16:32:07.703Z,2.07
2019-03-05T16:34:48.000Z,1.40
2019-03-05T16:37:24.956Z,1.60
2019-03-05T16:40:05.182Z,1.77
2019-03-05T16:42:53.095Z,1.60
2019-03-05T16:45:39.670Z,2.20
2019-03-05T16:48:20.034Z,2.70
2019-03-05T16:50:51.299Z,2.33
2019-03-05T16:53:28.256Z,2.20
2019-03-05T16:56:15.603Z,2.80
2019-03-05T16:58:44.986Z,2.43
2019-03-05T17:01:16.254Z,2.30
2019-03-05T17:03:49.972Z,2.17
2019-03-05T17:06:24.187Z,2.37
2019-03-05T17:08:58.176Z,2.50
2019-03-05T17:11:38.430Z,1.87
2019-03-05T17:14:08.360Z,1.93
2019-03-05T17:16:37.915Z,2.10
2019-03-05T17:19:07.723Z,2.33
2019-03-05T17:21:37.370Z,2.30
2019-03-05T17:24:07.769Z,2.50
2019-03-05T17:26:37.448Z,2.57
2019-03-05T17:29:07.679Z,2.23
2019-03-05T17:31:37.231Z,3.63
2019-03-05T17:34:06.844Z,2.53
2019-03-05T17:36:36.415Z,2.30
2019-03-05T17:39:09.712Z,2.20
2019-03-05T17:41:39.253Z,2.00
2019-03-05T17:44:08.963Z,2.30
2019-03-05T17:46:40.206Z,2.30
2019-03-05T17:49:09.747Z,3.70
2019-03-05T17:51:39.425Z,2.20
2019-03-05T17:54:09.040Z,2.30
2019-03-05T17:56:38.622Z,2.33
2019-03-05T17:59:08.756Z,3.57
2019-03-05T18:01:38.335Z,2.50
2019-03-05T18:04:08.018Z,2.70
2019-03-05T18:06:37.562Z,2.63
2019-03-05T18:09:09.711Z,2.80
2019-03-05T18:11:39.353Z,2.77
2019-03-05T18:14:09.092Z,3.37
2019-03-05T18:16:38.632Z,3.27
2019-03-05T18:19:08.203Z,3.50
2019-03-05T18:21:38.074Z,3.40
2019-03-05T18:24:07.691Z,3.20
2019-03-05T18:26:37.264Z,3.40
2019-03-05T18:29:06.807Z,3.17
2019-03-05T18:31:36.388Z,3.17
2019-03-05T18:34:06.456Z,3.63
2019-03-05T18:36:36.294Z,3.07
2019-03-05T18:39:06.274Z,2.83
2019-03-05T18:41:35.807Z,3.57
2019-03-05T18:44:06.513Z,3.90
2019-03-05T18:46:36.140Z,3.10
2019-03-05T18:49:05.786Z,2.90
2019-03-05T18:51:35.337Z,3.20
2019-03-05T18:54:05.157Z,3.50
2019-03-05T18:56:34.711Z,3.63
2019-03-05T18:59:04.321Z,3.03
2019-03-05T19:01:34.000Z,3.40
2019-03-05T19:04:03.611Z,4.40
2019-03-05T19:06:33.186Z,3.17
2019-03-05T19:09:02.974Z,3.53
2019-03-05T19:11:32.635Z,3.20
2019-03-05T19:14:02.182Z,5.73
2019-03-05T19:16:31.724Z,4.10
2019-03-05T19:19:01.371Z,4.57
2019-03-05T19:21:31.014Z,3.60
2019-03-05T19:24:00.574Z,3.57
2019-03-05T19:26:30.123Z,4.23
2019-03-05T19:28:59.795Z,4.23
2019-03-05T19:31:29.406Z,4.37
2019-03-05T19:33:58.965Z,3.80
2019-03-05T19:36:28.903Z,6.53
2019-03-05T19:38:58.467Z,5.00
2019-03-05T19:41:28.042Z,4.97
2019-03-05T19:43:57.864Z,5.17
2019-03-05T19:46:27.564Z,4.30
2019-03-05T19:48:57.125Z,3.80
2019-03-05T19:51:26.669Z,4.60
2019-03-05T19:53:57.802Z,3.80
2019-03-05T19:56:27.575Z,3.90
2019-03-05T19:58:57.172Z,4.23
2019-03-05T20:01:28.526Z,4.23
2019-03-05T20:03:58.110Z,4.13
2019-03-05T20:06:27.761Z,4.57
2019-03-05T20:08:57.361Z,4.87
2019-03-05T20:11:27.011Z,4.87
2019-03-05T20:13:56.628Z,4.57
2019-03-05T20:16:28.019Z,4.83
2019-03-05T20:18:57.574Z,5.67
2019-03-05T20:21:27.207Z,6.40
2019-03-05T20:23:56.818Z,5.50
2019-03-05T20:26:26.438Z,5.90
2019-03-05T20:28:56.002Z,5.00
2019-03-05T20:31:25.583Z,5.00
2019-03-05T20:33:55.218Z,5.10
2019-03-05T20:36:24.801Z,6.33
2019-03-05T20:38:54.369Z,5.57
2019-03-05T20:41:23.918Z,6.07
2019-03-05T20:43:53.487Z,8.40
2019-03-05T20:46:23.516Z,7.83
2019-03-05T20:48:53.206Z,6.90
2019-03-05T20:51:22.956Z,14.23
2019-03-05T20:53:52.514Z,9.80
2019-03-05T20:56:22.244Z,16.30
2019-03-05T20:58:51.853Z,8.23
2019-03-05T21:01:21.564Z,8.07
2019-03-05T21:03:51.235Z,7.97
2019-03-05T21:06:21.098Z,8.40
2019-03-05T21:08:50.872Z,7.40
2019-03-05T21:11:20.436Z,8.07
2019-03-05T21:13:50.180Z,8.10
2019-03-05T21:16:19.759Z,6.90
2019-03-05T21:18:49.636Z,7.00
2019-03-05T21:21:19.260Z,7.30
2019-03-05T21:23:48.811Z,9.23
2019-03-05T21:26:18.394Z,7.10
2019-03-05T21:28:47.974Z,7.33
2019-03-05T21:31:17.695Z,7.60
2019-03-05T21:33:51.900Z,7.53
2019-03-05T21:36:21.276Z,8.50
2019-03-05T21:38:50.833Z,7.20
2019-03-05T21:41:20.723Z,7.53
2019-03-05T21:43:50.295Z,8.20
2019-03-05T21:46:20.010Z,7.50
2019-03-05T21:48:49.616Z,7.40
2019-03-05T21:51:19.162Z,7.13
2019-03-05T21:53:48.710Z,7.20
2019-03-05T21:56:18.300Z,7.27
2019-03-05T21:58:47.920Z,8.20
2019-03-05T22:01:17.553Z,6.80
2019-03-05T22:03:47.657Z,7.80
2019-03-05T22:06:17.216Z,7.90
2019-03-05T22:08:46.862Z,6.83
2019-03-05T22:11:16.422Z,8.63
2019-03-05T22:13:46.143Z,7.90
2019-03-05T22:16:15.980Z,8.07
2019-03-05T22:18:45.555Z,7.77
2019-03-05T22:21:15.103Z,7.63
2019-03-05T22:23:44.846Z,8.17
2019-03-05T22:26:14.419Z,8.77
2019-03-05T22:28:45.115Z,8.73
2019-03-05T22:31:14.691Z,7.63
2019-03-05T22:33:44.261Z,7.60
2019-03-05T22:36:13.893Z,7.40
2019-03-05T22:38:43.446Z,7.67
2019-03-05T22:41:13.034Z,8.10
2019-03-05T22:43:43.076Z,8.20
2019-03-05T22:46:12.631Z,8.87
2019-03-05T22:48:42.219Z,8.50
2019-03-05T22:51:11.938Z,7.70
2019-03-05T22:53:41.511Z,8.27
2019-03-05T22:56:11.146Z,8.60
2019-03-05T22:58:40.733Z,8.07
2019-03-05T23:01:13.807Z,8.07
2019-03-05T23:03:44.499Z,8.60
2019-03-05T23:06:14.147Z,8.10
2019-03-05T23:08:43.769Z,9.53
2019-03-05T23:11:13.521Z,7.73
2019-03-05T23:13:43.419Z,8.60
2019-03-05T23:16:14.023Z,8.47
2019-03-05T23:18:43.574Z,9.33
2019-03-05T23:21:13.545Z,9.37
2019-03-05T23:23:43.115Z,8.53
2019-03-05T23:26:13.547Z,8.57
2019-03-05T23:28:43.965Z,8.27
2019-03-05T23:31:13.967Z,7.70
2019-03-05T23:33:43.529Z,9.30
2019-03-05T23:36:13.322Z,8.07
2019-03-05T23:38:42.926Z,9.10
2019-03-05T23:41:12.668Z,8.87
2019-03-05T23:43:42.294Z,8.30
2019-03-05T23:46:11.925Z,8.43
2019-03-05T23:48:41.547Z,7.97
2019-03-05T23:51:11.148Z,8.63
2019-03-05T23:53:40.697Z,9.33
2019-03-05T23:56:10.263Z,8.73
2019-03-05T23:58:39.823Z,8.43
